createdAt,value
2023-10-23T00:01:40.735Z,75.83
2023-10-23T00:04:08.496Z,75.71
2023-10-23T00:06:35.492Z,75.98
2023-10-23T00:09:03.465Z,75.69
2023-10-23T00:11:31.574Z,75.60
2023-10-23T00:13:58.786Z,75.86
2023-10-23T00:16:25.675Z,75.80
2023-10-23T00:18:55.319Z,75.72
2023-10-23T00:21:22.373Z,75.76
2023-10-23T00:23:49.270Z,75.63
2023-10-23T00:26:16.605Z,75.24
2023-10-23T00:28:50.555Z,74.92
2023-10-23T00:31:17.608Z,74.76
2023-10-23T00:33:44.532Z,74.74
2023-10-23T00:36:11.443Z,74.78
2023-10-23T00:38:38.222Z,74.54
2023-10-23T00:41:05.066Z,74.68
2023-10-23T00:43:31.876Z,74.53
2023-10-23T00:46:03.179Z,74.06
2023-10-23T00:48:30.011Z,74.38
2023-10-23T00:50:58.795Z,74.25
2023-10-23T00:53:27.278Z,73.92
2023-10-23T00:55:56.315Z,73.89
2023-10-23T00:58:28.120Z,73.82
2023-10-23T01:00:56.339Z,73.82
2023-10-23T01:03:23.491Z,74.10
2023-10-23T01:05:50.762Z,74.30
2023-10-23T01:08:17.704Z,74.24
2023-10-23T01:10:44.605Z,74.24
2023-10-23T01:13:11.532Z,74.09
2023-10-23T01:15:38.330Z,73.83
2023-10-23T01:18:05.680Z,73.83
2023-10-23T01:20:33.041Z,73.79
2023-10-23T01:23:01.714Z,73.90
2023-10-23T01:25:29.468Z,73.86
2023-10-23T01:27:56.631Z,74.19
2023-10-23T01:30:23.603Z,74.13
2023-10-23T01:32:50.638Z,74.54
2023-10-23T01:35:17.690Z,74.64
2023-10-23T01:37:46.249Z,74.57
2023-10-23T01:40:13.267Z,74.65
2023-10-23T01:42:40.688Z,74.48
2023-10-23T01:45:08.090Z,74.38
2023-10-23T01:47:34.863Z,74.66
2023-10-23T01:50:01.803Z,74.44
2023-10-23T01:52:28.757Z,74.23
2023-10-23T01:54:55.678Z,74.23
2023-10-23T01:57:22.551Z,73.75
2023-10-23T01:59:49.337Z,74.17
2023-10-23T02:02:16.174Z,74.28
2023-10-23T02:04:43.021Z,74.32
2023-10-23T02:07:10.683Z,74.36
2023-10-23T02:09:37.468Z,74.22
2023-10-23T02:12:06.199Z,74.18
2023-10-23T02:14:33.070Z,73.80
2023-10-23T02:16:59.927Z,74.05
2023-10-23T02:19:26.828Z,74.26
2023-10-23T02:21:53.673Z,74.14
2023-10-23T02:24:23.658Z,74.27
2023-10-23T02:26:50.472Z,74.11
2023-10-23T02:29:17.244Z,73.66
2023-10-23T02:31:44.037Z,73.79
2023-10-23T02:34:10.891Z,73.59
2023-10-23T02:36:37.839Z,73.60
2023-10-23T02:39:04.784Z,73.39
2023-10-23T02:41:31.930Z,73.65
2023-10-23T02:43:58.850Z,74.18
2023-10-23T02:46:26.230Z,74.76
2023-10-23T02:48:54.859Z,74.78
2023-10-23T02:51:21.713Z,74.29
2023-10-23T02:53:48.564Z,74.39
2023-10-23T02:56:15.382Z,74.54
2023-10-23T02:58:42.310Z,74.81
2023-10-23T03:01:24.870Z,75.11
2023-10-23T03:03:52.760Z,75.10
2023-10-23T03:06:20.130Z,75.43
2023-10-23T03:08:47.095Z,75.34
2023-10-23T03:11:13.905Z,75.57
2023-10-23T03:13:40.683Z,75.53
2023-10-23T03:16:08.484Z,75.81
2023-10-23T03:18:35.599Z,75.91
2023-10-23T03:21:03.332Z,75.52
2023-10-23T03:23:31.301Z,75.75
2023-10-23T03:25:58.299Z,76.02
2023-10-23T03:28:25.195Z,76.06
2023-10-23T03:30:52.120Z,76.20
2023-10-23T03:33:19.102Z,75.90
2023-10-23T03:35:46.077Z,75.82
2023-10-23T03:38:14.673Z,76.30
2023-10-23T03:40:41.526Z,76.39
2023-10-23T03:43:09.032Z,76.70
2023-10-23T03:45:37.582Z,76.55
2023-10-23T03:48:04.670Z,76.80
2023-10-23T03:50:31.808Z,76.71
2023-10-23T03:52:59.155Z,76.80
2023-10-23T03:55:26.205Z,76.81
2023-10-23T03:57:53.201Z,77.14
2023-10-23T04:00:20.169Z,76.79
2023-10-23T04:02:47.242Z,76.94
2023-10-23T04:05:14.345Z,77.35
2023-10-23T04:07:41.200Z,77.42
2023-10-23T04:10:08.980Z,77.39
2023-10-23T04:12:35.939Z,77.44
2023-10-23T04:15:02.964Z,77.67
2023-10-23T04:17:30.419Z,77.52
2023-10-23T04:19:57.544Z,77.59
2023-10-23T04:22:24.301Z,77.89
2023-10-23T04:24:54.296Z,78.14
2023-10-23T04:27:21.963Z,78.29
2023-10-23T04:29:48.860Z,77.99
2023-10-23T04:32:15.731Z,77.93
2023-10-23T04:34:42.571Z,78.28
2023-10-23T04:37:09.393Z,78.22
2023-10-23T04:39:36.210Z,78.22
2023-10-23T04:42:03.113Z,78.05
2023-10-23T04:44:30.133Z,77.59
2023-10-23T04:46:56.984Z,77.90
2023-10-23T04:49:23.820Z,77.85
2023-10-23T04:51:50.666Z,78.06
2023-10-23T04:54:17.733Z,77.37
2023-10-23T04:56:44.532Z,77.38
2023-10-23T04:59:11.480Z,77.20
2023-10-23T05:01:38.575Z,77.10
2023-10-23T05:04:05.873Z,77.28
2023-10-23T05:06:32.886Z,77.47
2023-10-23T05:08:59.808Z,77.43
2023-10-23T05:11:26.728Z,77.77
2023-10-23T05:13:53.508Z,78.13
2023-10-23T05:16:20.401Z,77.75
2023-10-23T05:18:48.744Z,78.13
2023-10-23T05:21:15.878Z,77.90
2023-10-23T05:23:43.087Z,78.13
2023-10-23T05:26:11.821Z,78.14
2023-10-23T05:28:41.074Z,77.91
2023-10-23T05:31:09.375Z,77.69
2023-10-23T05:33:36.823Z,77.75
2023-10-23T05:36:05.204Z,77.91
2023-10-23T05:38:32.787Z,77.57
2023-10-23T05:40:59.937Z,77.33
2023-10-23T05:43:27.655Z,77.37
2023-10-23T05:45:55.405Z,77.43
2023-10-23T05:48:22.444Z,77.68
2023-10-23T05:51:05.803Z,77.70
2023-10-23T05:53:33.081Z,77.61
2023-10-23T05:56:06.283Z,77.86
2023-10-23T05:58:36.508Z,77.87
2023-10-23T06:01:13.708Z,78.24
2023-10-23T06:03:40.691Z,78.14
2023-10-23T06:06:08.263Z,78.04
2023-10-23T06:08:35.193Z,78.12
2023-10-23T06:11:02.895Z,77.68
2023-10-23T06:13:29.837Z,78.02
2023-10-23T06:16:07.904Z,77.88
2023-10-23T06:18:38.869Z,77.53
2023-10-23T06:21:07.594Z,77.54
2023-10-23T06:23:38.670Z,77.59
2023-10-23T06:26:06.234Z,77.43
2023-10-23T06:28:34.038Z,77.41
2023-10-23T06:31:07.973Z,77.52
2023-10-23T06:33:36.523Z,77.95
2023-10-23T06:36:04.820Z,78.25
2023-10-23T06:38:31.647Z,78.50
2023-10-23T06:41:03.568Z,78.32
2023-10-23T06:43:30.536Z,78.60
2023-10-23T06:46:02.198Z,78.23
2023-10-23T06:48:32.976Z,78.16
2023-10-23T06:51:00.642Z,78.95
2023-10-23T06:53:27.456Z,78.88
2023-10-23T06:55:55.279Z,79.00
2023-10-23T06:58:22.759Z,78.83
2023-10-23T07:00:49.593Z,78.63
2023-10-23T07:03:16.661Z,78.97
2023-10-23T07:05:44.341Z,78.68
2023-10-23T07:08:11.206Z,78.53
2023-10-23T07:10:39.234Z,78.11
2023-10-23T07:13:18.822Z,77.96
2023-10-23T07:15:49.275Z,77.16
2023-10-23T07:18:16.412Z,77.40
2023-10-23T07:20:53.179Z,77.35
2023-10-23T07:23:20.266Z,77.20
2023-10-23T07:25:47.036Z,77.23
2023-10-23T07:28:13.804Z,76.82
2023-10-23T07:30:40.542Z,76.99
2023-10-23T07:33:07.318Z,77.45
2023-10-23T07:35:46.741Z,77.53
2023-10-23T07:38:19.789Z,77.35
2023-10-23T07:40:46.520Z,77.20
2023-10-23T07:43:13.437Z,77.39
2023-10-23T07:45:40.915Z,77.49
2023-10-23T07:48:07.719Z,77.22
2023-10-23T07:50:34.949Z,77.05
2023-10-23T07:53:01.919Z,77.31
2023-10-23T07:55:28.635Z,77.65
2023-10-23T07:57:55.393Z,78.14
2023-10-23T08:00:22.366Z,78.24
2023-10-23T08:02:49.402Z,78.76
2023-10-23T08:05:16.269Z,79.28
2023-10-23T08:07:43.273Z,79.33
2023-10-23T08:10:10.134Z,78.93
2023-10-23T08:12:36.947Z,79.39
2023-10-23T08:15:03.948Z,79.94
2023-10-23T08:17:41.796Z,80.39
2023-10-23T08:20:10.321Z,80.30
2023-10-23T08:22:37.609Z,80.72
2023-10-23T08:25:05.324Z,80.74
2023-10-23T08:27:32.106Z,80.77
2023-10-23T08:29:58.952Z,81.45
2023-10-23T08:32:31.400Z,81.59
2023-10-23T08:35:08.203Z,81.57
2023-10-23T08:37:35.277Z,81.80
2023-10-23T08:40:04.585Z,82.24
2023-10-23T08:42:31.613Z,82.17
2023-10-23T08:44:58.680Z,82.32
2023-10-23T08:47:25.486Z,82.48
2023-10-23T08:49:53.802Z,82.67
2023-10-23T08:52:22.608Z,82.88
2023-10-23T08:54:51.760Z,83.43
2023-10-23T08:57:20.539Z,83.59
2023-10-23T08:59:47.315Z,83.89
2023-10-23T09:02:14.436Z,84.02
2023-10-23T09:04:47.321Z,84.25
2023-10-23T09:07:14.607Z,84.47
2023-10-23T09:09:41.785Z,84.65
2023-10-23T09:12:08.707Z,84.92
2023-10-23T09:14:36.881Z,85.19
2023-10-23T09:17:06.873Z,85.18
2023-10-23T09:19:38.777Z,85.26
2023-10-23T09:22:08.227Z,85.54
2023-10-23T09:24:36.401Z,86.53
2023-10-23T09:27:04.141Z,86.20
2023-10-23T09:29:30.930Z,86.27
2023-10-23T09:31:59.870Z,86.31
2023-10-23T09:34:27.339Z,86.10
2023-10-23T09:36:54.607Z,86.04
2023-10-23T09:39:23.757Z,85.95
2023-10-23T09:41:50.936Z,86.29
2023-10-23T09:44:18.762Z,86.31
2023-10-23T09:46:48.109Z,86.37
2023-10-23T09:49:15.991Z,86.21
2023-10-23T09:51:43.451Z,86.33
2023-10-23T09:54:16.943Z,86.45
2023-10-23T09:56:52.385Z,86.95
2023-10-23T09:59:25.949Z,86.87
2023-10-23T10:01:58.443Z,86.96
2023-10-23T10:04:57.648Z,86.99
2023-10-23T10:07:35.057Z,87.69
2023-10-23T10:10:02.532Z,87.21
2023-10-23T10:12:29.808Z,87.39
2023-10-23T10:14:57.353Z,87.30
2023-10-23T10:17:24.437Z,87.12
2023-10-23T10:19:51.580Z,86.99
2023-10-23T10:22:25.377Z,86.94
2023-10-23T10:24:53.440Z,87.34
2023-10-23T10:27:20.650Z,87.02
2023-10-23T10:29:48.062Z,87.19
2023-10-23T10:32:15.093Z,87.14
2023-10-23T10:34:55.406Z,87.95
2023-10-23T10:37:26.660Z,87.66
2023-10-23T10:40:04.886Z,87.79
2023-10-23T10:42:36.483Z,87.51
2023-10-23T10:45:12.999Z,87.54
2023-10-23T10:47:55.753Z,87.51
2023-10-23T10:50:39.947Z,88.21
2023-10-23T10:53:09.013Z,88.01
2023-10-23T10:55:37.770Z,88.47
2023-10-23T10:58:05.487Z,88.22
2023-10-23T11:00:34.359Z,88.50
2023-10-23T11:03:01.340Z,88.45
2023-10-23T11:05:28.198Z,88.57
2023-10-23T11:07:54.984Z,88.62
2023-10-23T11:10:22.602Z,88.66
2023-10-23T11:12:51.310Z,89.11
2023-10-23T11:15:19.005Z,89.08
2023-10-23T11:17:45.955Z,89.21
2023-10-23T11:20:14.142Z,89.08
2023-10-23T11:22:45.167Z,89.10
2023-10-23T11:25:12.974Z,89.03
2023-10-23T11:27:40.019Z,89.81
2023-10-23T11:30:07.660Z,89.96
2023-10-23T11:32:35.474Z,90.00
2023-10-23T11:35:06.570Z,89.54
2023-10-23T11:37:37.960Z,89.78
2023-10-23T11:40:07.154Z,90.56
2023-10-23T11:42:43.749Z,91.12
2023-10-23T11:45:10.803Z,91.20
2023-10-23T11:47:40.270Z,91.66
2023-10-23T11:50:14.412Z,90.56
2023-10-23T11:52:45.603Z,90.27
2023-10-23T11:55:15.356Z,90.09
2023-10-23T11:57:43.266Z,89.21
2023-10-23T12:00:14.850Z,89.19
2023-10-23T12:02:42.816Z,89.20
2023-10-23T12:05:14.177Z,89.42
2023-10-23T12:07:41.886Z,89.09
2023-10-23T12:10:10.859Z,89.32
2023-10-23T12:12:43.429Z,89.27
2023-10-23T12:15:11.033Z,89.25
2023-10-23T12:17:38.556Z,88.86
2023-10-23T12:20:09.347Z,89.00
2023-10-23T12:22:38.056Z,88.76
2023-10-23T12:25:05.962Z,88.89
2023-10-23T12:27:34.127Z,89.06
2023-10-23T12:30:06.602Z,88.75
2023-10-23T12:33:18.029Z,88.97
2023-10-23T12:35:21.179Z,88.72
2023-10-23T12:37:48.888Z,88.74
2023-10-23T12:40:15.639Z,89.06
2023-10-23T12:42:42.455Z,88.76
2023-10-23T12:45:09.674Z,88.62
2023-10-23T12:47:36.763Z,88.75
2023-10-23T12:50:04.941Z,88.62
2023-10-23T12:52:32.969Z,88.70
2023-10-23T12:55:00.098Z,88.67
2023-10-23T12:57:26.950Z,87.94
2023-10-23T12:59:53.768Z,88.09
2023-10-23T13:02:20.549Z,88.30
2023-10-23T13:04:49.766Z,88.27
2023-10-23T13:07:17.025Z,88.01
2023-10-23T13:09:43.970Z,88.96
2023-10-23T13:12:10.991Z,89.85
2023-10-23T13:14:39.277Z,89.93
2023-10-23T13:17:06.238Z,89.99
2023-10-23T13:19:33.248Z,89.49
2023-10-23T13:22:00.106Z,89.85
2023-10-23T13:24:27.457Z,89.21
2023-10-23T13:26:54.632Z,89.10
2023-10-23T13:29:21.448Z,88.80
2023-10-23T13:31:49.674Z,88.12
2023-10-23T13:34:17.278Z,88.07
2023-10-23T13:36:44.254Z,88.16
2023-10-23T13:39:11.010Z,88.23
2023-10-23T13:41:38.070Z,88.41
2023-10-23T13:44:04.986Z,89.15
2023-10-23T13:46:31.767Z,89.44
2023-10-23T13:48:59.020Z,89.45
2023-10-23T13:51:25.788Z,89.60
2023-10-23T13:53:52.569Z,90.01
2023-10-23T13:56:19.279Z,89.97
2023-10-23T13:58:47.774Z,89.80
2023-10-23T14:01:15.078Z,89.58
2023-10-23T14:08:47.084Z,89.27
2023-10-23T14:11:58.196Z,89.54
2023-10-23T14:14:04.333Z,89.16
2023-10-23T14:16:31.075Z,89.33
2023-10-23T14:18:58.192Z,89.38
2023-10-23T14:21:24.953Z,89.72
2023-10-23T14:23:51.748Z,90.14
2023-10-23T14:26:18.569Z,92.07
2023-10-23T14:28:45.305Z,92.00
2023-10-23T14:31:12.064Z,92.57
2023-10-23T14:33:38.835Z,92.48
2023-10-23T14:36:05.996Z,93.13
2023-10-23T14:38:32.905Z,93.27
2023-10-23T14:41:00.512Z,93.90
2023-10-23T14:43:28.420Z,94.12
2023-10-23T14:45:55.639Z,94.81
2023-10-23T14:48:24.326Z,94.28
2023-10-23T14:50:54.223Z,93.80
2023-10-23T14:53:21.842Z,93.75
2023-10-23T14:55:48.808Z,94.17
2023-10-23T14:58:16.875Z,94.72
2023-10-23T15:00:43.953Z,95.24
2023-10-23T15:03:10.868Z,95.40
2023-10-23T15:05:37.725Z,95.83
2023-10-23T15:08:04.809Z,95.95
2023-10-23T15:10:35.676Z,96.13
2023-10-23T15:13:02.998Z,96.17
2023-10-23T15:15:32.971Z,96.57
2023-10-23T15:17:59.777Z,96.24
2023-10-23T15:20:33.160Z,96.08
2023-10-23T15:23:01.228Z,97.08
2023-10-23T15:25:28.317Z,98.21
2023-10-23T15:27:55.371Z,96.61
2023-10-23T15:30:22.592Z,96.61
2023-10-23T15:32:49.458Z,96.47
2023-10-23T15:35:16.524Z,96.63
2023-10-23T15:37:43.993Z,96.71
2023-10-23T15:40:11.559Z,96.36
2023-10-23T15:42:38.379Z,96.58
2023-10-23T15:45:05.648Z,96.75
2023-10-23T15:47:32.570Z,97.70
2023-10-23T15:49:59.952Z,97.93
2023-10-23T15:52:27.280Z,98.15
2023-10-23T15:54:54.285Z,97.97
2023-10-23T15:57:21.362Z,98.22
2023-10-23T15:59:48.102Z,98.98
2023-10-23T16:02:16.206Z,98.64
2023-10-23T16:04:57.243Z,99.37
2023-10-23T16:08:06.061Z,98.77
2023-10-23T16:10:33.627Z,98.84
2023-10-23T16:13:02.274Z,98.90
2023-10-23T16:15:29.318Z,99.26
2023-10-23T16:18:00.008Z,98.93
2023-10-23T16:20:27.069Z,98.88
2023-10-23T16:22:54.069Z,99.51
2023-10-23T16:25:20.929Z,99.23
2023-10-23T16:27:47.753Z,98.93
2023-10-23T16:30:15.754Z,98.39
2023-10-23T16:32:43.035Z,98.50
2023-10-23T16:35:10.124Z,98.89
2023-10-23T16:37:36.910Z,98.72
2023-10-23T16:40:04.080Z,97.96
2023-10-23T16:42:30.862Z,98.18
2023-10-23T16:44:58.004Z,98.22
2023-10-23T16:47:25.110Z,97.91
2023-10-23T16:49:53.849Z,97.84
2023-10-23T16:52:20.757Z,98.06
2023-10-23T16:54:47.943Z,99.02
2023-10-23T16:57:14.956Z,98.50
2023-10-23T16:59:42.201Z,97.90
2023-10-23T17:02:10.354Z,97.96
2023-10-23T17:04:37.351Z,97.94
2023-10-23T17:07:04.471Z,98.02
2023-10-23T17:09:32.307Z,97.97
2023-10-23T17:11:59.111Z,98.40
2023-10-23T17:14:25.936Z,98.32
2023-10-23T17:16:53.019Z,98.53
2023-10-23T17:22:38.234Z,98.77
2023-10-23T17:25:05.867Z,98.95
2023-10-23T17:27:32.647Z,98.41
2023-10-23T17:29:59.426Z,98.44
2023-10-23T17:32:26.392Z,98.51
2023-10-23T17:34:53.209Z,98.38
2023-10-23T17:37:20.357Z,98.59
2023-10-23T17:39:47.167Z,98.31
2023-10-23T17:42:14.120Z,98.35
2023-10-23T17:44:40.950Z,98.85
2023-10-23T17:47:07.880Z,98.45
2023-10-23T17:49:34.786Z,98.48
2023-10-23T17:52:01.560Z,98.80
2023-10-23T17:54:29.529Z,99.35
2023-10-23T17:56:56.384Z,99.39
2023-10-23T17:59:23.091Z,99.81
2023-10-23T18:01:50.060Z,100.00
2023-10-23T18:04:17.049Z,99.87
2023-10-23T18:06:44.096Z,99.53
2023-10-23T18:09:11.078Z,99.81
2023-10-23T18:11:39.619Z,99.82
2023-10-23T18:14:07.857Z,100.00
2023-10-23T18:16:34.771Z,100.00
2023-10-23T18:19:01.642Z,100.00
2023-10-23T18:21:28.669Z,100.00
2023-10-23T18:23:55.437Z,100.00
2023-10-23T18:26:22.782Z,100.00
2023-10-23T18:28:49.740Z,100.00
2023-10-23T18:31:16.663Z,100.00
2023-10-23T18:33:46.871Z,100.00
2023-10-23T18:39:38.023Z,100.00
2023-10-23T18:42:05.912Z,100.00
2023-10-23T18:44:32.733Z,100.00
2023-10-23T18:46:59.654Z,100.00
2023-10-23T18:49:26.563Z,100.00
2023-10-23T18:51:54.600Z,100.00
2023-10-23T18:54:21.391Z,100.00
2023-10-23T18:56:49.454Z,100.00
2023-10-23T18:59:16.212Z,100.00
2023-10-23T19:01:43.739Z,100.00
2023-10-23T19:04:10.578Z,100.00
2023-10-23T19:06:39.752Z,100.00
2023-10-23T19:09:06.737Z,100.00
2023-10-23T19:11:33.686Z,100.00
2023-10-23T19:14:01.490Z,100.00
2023-10-23T19:16:28.293Z,100.00
2023-10-23T19:18:55.119Z,100.00
2023-10-23T19:21:21.874Z,100.00
2023-10-23T19:23:48.801Z,100.00
2023-10-23T19:26:16.141Z,100.00
2023-10-23T19:28:42.946Z,100.00
2023-10-23T19:31:17.254Z,100.00
2023-10-23T19:33:45.444Z,100.00
2023-10-23T19:36:13.594Z,100.00
2023-10-23T19:38:42.835Z,100.00
2023-10-23T19:41:17.326Z,100.00
2023-10-23T19:43:49.424Z,100.00
2023-10-23T19:46:19.943Z,100.00
2023-10-23T19:48:48.451Z,100.00
2023-10-23T19:51:17.972Z,100.00
2023-10-23T19:53:46.812Z,100.00
2023-10-23T19:56:19.630Z,100.00
2023-10-23T19:58:56.225Z,100.00
2023-10-23T20:01:23.350Z,100.00
2023-10-23T20:03:50.981Z,100.00
2023-10-23T20:06:17.847Z,100.00
2023-10-23T20:08:44.771Z,100.00
2023-10-23T20:11:11.697Z,100.00
2023-10-23T20:13:38.435Z,100.00
2023-10-23T20:16:05.768Z,100.00
2023-10-23T20:18:35.169Z,100.00
2023-10-23T20:21:02.349Z,100.00
2023-10-23T20:23:29.112Z,100.00
2023-10-23T20:25:55.988Z,100.00
2023-10-23T20:28:22.766Z,100.00
2023-10-23T20:30:50.392Z,100.00
2023-10-23T20:33:17.155Z,100.00
2023-10-23T20:35:45.262Z,100.00
2023-10-23T20:38:12.502Z,100.00
2023-10-23T20:40:39.834Z,100.00
2023-10-23T20:43:06.790Z,100.00
2023-10-23T20:45:38.077Z,100.00
2023-10-23T20:48:05.512Z,100.00
2023-10-23T20:50:32.307Z,100.00
2023-10-23T20:52:59.084Z,100.00
2023-10-23T20:55:25.910Z,100.00
2023-10-23T20:57:52.638Z,100.00
2023-10-23T21:00:19.510Z,100.00
2023-10-23T21:02:46.472Z,100.00
2023-10-23T21:05:13.378Z,100.00
2023-10-23T21:07:40.310Z,100.00
2023-10-23T21:10:07.882Z,100.00
2023-10-23T21:12:34.678Z,100.00
2023-10-23T21:15:01.525Z,100.00
2023-10-23T21:17:28.550Z,100.00
2023-10-23T21:19:55.347Z,100.00
2023-10-23T21:22:22.177Z,100.00
2023-10-23T21:24:49.057Z,100.00
2023-10-23T21:27:16.400Z,100.00
2023-10-23T21:29:43.143Z,100.00
2023-10-23T21:32:10.156Z,100.00
2023-10-23T21:34:36.932Z,100.00
2023-10-23T21:37:03.806Z,100.00
2023-10-23T21:39:37.915Z,100.00
2023-10-23T21:42:04.807Z,100.00
2023-10-23T21:44:31.754Z,100.00
2023-10-23T21:46:58.570Z,100.00
2023-10-23T21:49:25.426Z,100.00
2023-10-23T21:51:52.517Z,100.00
2023-10-23T21:54:19.377Z,100.00
2023-10-23T21:57:20.697Z,100.00
2023-10-23T21:59:33.203Z,100.00
2023-10-23T22:02:00.916Z,100.00
2023-10-23T22:04:27.968Z,100.00
2023-10-23T22:06:56.064Z,100.00
2023-10-23T22:09:23.244Z,100.00
2023-10-23T22:11:51.002Z,100.00
2023-10-23T22:14:17.853Z,100.00
2023-10-23T22:16:44.945Z,100.00
2023-10-23T22:19:11.734Z,100.00
2023-10-23T22:21:38.494Z,100.00
2023-10-23T22:24:05.861Z,100.00
2023-10-23T22:26:33.384Z,100.00
2023-10-23T22:29:00.484Z,100.00
2023-10-23T22:31:27.477Z,100.00
2023-10-23T22:33:55.180Z,100.00
2023-10-23T22:36:22.055Z,100.00
2023-10-23T22:38:49.486Z,100.00
2023-10-23T22:41:17.242Z,100.00
2023-10-23T22:43:44.353Z,100.00
2023-10-23T22:46:11.290Z,100.00
2023-10-23T22:48:38.256Z,100.00
2023-10-23T22:51:05.297Z,100.00
2023-10-23T22:53:33.911Z,100.00
2023-10-23T22:56:02.986Z,100.00
2023-10-23T22:58:31.607Z,100.00
2023-10-23T23:00:59.622Z,100.00
2023-10-23T23:03:26.846Z,100.00
2023-10-23T23:05:55.347Z,100.00
2023-10-23T23:08:22.337Z,100.00
2023-10-23T23:10:49.289Z,100.00
2023-10-23T23:13:16.397Z,100.00
2023-10-23T23:15:46.068Z,100.00
2023-10-23T23:18:14.504Z,100.00
2023-10-23T23:20:42.078Z,100.00
2023-10-23T23:23:09.603Z,100.00
2023-10-23T23:25:36.775Z,100.00
2023-10-23T23:28:03.671Z,100.00
2023-10-23T23:30:30.452Z,100.00
2023-10-23T23:32:57.200Z,100.00
2023-10-23T23:35:24.200Z,100.00
2023-10-23T23:37:50.910Z,100.00
2023-10-23T23:40:17.675Z,100.00
2023-10-23T23:42:44.413Z,100.00
2023-10-23T23:45:11.273Z,100.00
2023-10-23T23:47:38.273Z,100.00
2023-10-23T23:50:05.605Z,100.00
2023-10-23T23:52:33.610Z,100.00
2023-10-23T23:55:00.432Z,100.00
2023-10-23T23:57:29.132Z,100.00
2023-10-23T23:59:55.922Z,100.00
